Time;durP1;ratioP1;P1;durP2;ratioP2;P2;SDS_P1;SDS_P2;PMS_P1;PMS_P2;Temp;Humidity;BMP_temperature;BMP_pressure;BME280_temperature;BME280_humidity;BME280_pressure;Samples;Min_cycle;Max_cycle;Signal;HPM_P1;HPM_P2
2021/11/03 00:00:52;;;;;;;1.02;0.90;;;19.70;65.70;;;;;;5050763;28;20017;-71
2021/11/03 00:03:18;;;;;;;1.52;0.57;;;19.60;65.70;;;;;;5050686;28;20075;-71
2021/11/03 00:05:45;;;;;;;4.00;0.70;;;19.60;65.80;;;;;;5050652;28;20021;-71
2021/11/03 00:08:18;;;;;;;0.93;0.70;;;19.60;65.80;;;;;;5050632;28;20043;-72
2021/11/03 00:10:45;;;;;;;2.58;1.20;;;19.60;65.80;;;;;;5050802;28;20047;-71
2021/11/03 00:13:11;;;;;;;1.00;0.90;;;19.50;65.90;;;;;;5051257;28;20047;-72
2021/11/03 00:15:37;;;;;;;2.53;0.90;;;19.60;65.90;;;;;;5054445;28;20107;-71
2021/11/03 00:18:03;;;;;;;0.60;0.60;;;19.60;65.90;;;;;;5054394;28;20097;-72
2021/11/03 00:20:28;;;;;;;1.58;0.90;;;19.50;65.90;;;;;;5037726;28;20033;-72
2021/11/03 00:22:54;;;;;;;2.35;0.90;;;19.50;65.90;;;;;;5054456;28;20021;-71
2021/11/03 00:25:20;;;;;;;0.98;0.63;;;19.50;65.90;;;;;;5054325;28;20040;-72
2021/11/03 00:27:45;;;;;;;0.95;0.80;;;19.50;65.90;;;;;;5054043;28;20029;-71
2021/11/03 00:30:11;;;;;;;1.55;0.90;;;19.50;65.90;;;;;;5055499;28;20036;-72
2021/11/03 00:32:36;;;;;;;1.92;0.80;;;19.50;66.00;;;;;;5054200;28;20474;-72
2021/11/03 00:35:02;;;;;;;0.63;0.60;;;19.50;66.00;;;;;;5055282;28;20033;-72
2021/11/03 00:37:28;;;;;;;2.42;0.75;;;19.50;66.00;;;;;;5054142;28;20017;-72
2021/11/03 00:39:54;;;;;;;0.90;0.60;;;19.50;66.00;;;;;;5054061;28;20406;-72
2021/11/03 00:42:19;;;;;;;0.60;0.60;;;19.50;66.00;;;;;;5054790;28;20021;-72
2021/11/03 00:44:45;;;;;;;0.85;0.65;;;19.40;66.00;;;;;;5055242;28;20025;-72
2021/11/03 00:47:10;;;;;;;0.95;0.57;;;19.40;66.10;;;;;;5054039;28;20029;-72
2021/11/03 00:49:36;;;;;;;0.93;0.60;;;19.40;66.10;;;;;;5053801;28;20071;-72
2021/11/03 00:52:02;;;;;;;2.28;1.00;;;19.40;66.10;;;;;;5054010;28;20032;-72
2021/11/03 00:54:28;;;;;;;0.85;0.80;;;19.40;66.10;;;;;;5054882;28;20475;-71
2021/11/03 00:56:53;;;;;;;1.75;0.70;;;19.30;66.20;;;;;;5053454;28;20047;-71
2021/11/03 00:59:19;;;;;;;1.15;0.70;;;19.30;66.20;;;;;;5054978;28;20083;-71
2021/11/03 01:01:44;;;;;;;1.05;0.70;;;19.40;66.20;;;;;;5053458;28;20040;-72
2021/11/03 01:04:10;;;;;;;0.95;0.85;;;19.30;66.20;;;;;;5053779;28;20075;-72
2021/11/03 01:06:36;;;;;;;1.75;0.70;;;19.30;66.20;;;;;;5054442;28;20060;-71
2021/11/03 01:09:03;;;;;;;2.33;0.55;;;19.30;66.20;;;;;;5037105;28;20528;-71
2021/11/03 01:11:28;;;;;;;0.60;0.55;;;19.30;66.20;;;;;;5054346;28;20025;-72
2021/11/03 01:13:54;;;;;;;1.58;0.60;;;19.30;66.20;;;;;;5053416;28;20033;-71
2021/11/03 01:16:20;;;;;;;2.42;0.60;;;19.30;66.30;;;;;;5036710;28;20044;-72
2021/11/03 01:18:45;;;;;;;0.70;0.52;;;19.30;66.30;;;;;;5054382;28;20029;-72
2021/11/03 01:21:11;;;;;;;2.28;0.73;;;19.30;66.30;;;;;;5053238;28;20021;-71
2021/11/03 01:23:37;;;;;;;1.45;0.70;;;19.30;66.30;;;;;;5053125;28;20083;-72
2021/11/03 01:26:02;;;;;;;2.88;0.70;;;19.30;66.30;;;;;;5053466;28;20495;-72
2021/11/03 01:28:28;;;;;;;2.45;0.68;;;19.30;66.30;;;;;;5053190;28;20021;-71
2021/11/03 01:30:55;;;;;;;1.25;0.70;;;19.30;66.40;;;;;;5053131;28;20498;-72
2021/11/03 01:33:21;;;;;;;0.77;0.60;;;19.30;66.40;;;;;;5036680;28;20032;-71
2021/11/03 01:35:47;;;;;;;1.75;0.80;;;19.30;66.40;;;;;;5036405;28;20146;-71
2021/11/03 01:38:13;;;;;;;0.75;0.75;;;19.20;66.40;;;;;;5052953;28;20104;-71
2021/11/03 01:40:41;;;;;;;1.40;1.05;;;19.20;66.40;;;;;;5035883;28;20033;-71
2021/11/03 01:43:06;;;;;;;0.60;0.60;;;19.20;66.40;;;;;;5052840;28;20021;-72
2021/11/03 01:45:32;;;;;;;0.60;0.40;;;19.20;66.40;;;;;;5052816;28;20147;-72
2021/11/03 01:48:03;;;;;;;1.00;0.77;;;19.20;66.50;;;;;;5052828;28;20025;-72
2021/11/03 01:50:47;;;;;;;0.90;0.60;;;19.20;66.40;;;;;;5036835;28;20017;-71
2021/11/03 01:53:15;;;;;;;0.73;0.63;;;19.20;66.40;;;;;;5038011;28;20108;-72
2021/11/03 01:55:51;;;;;;;0.93;0.80;;;19.20;66.50;;;;;;5052614;28;20016;-72
2021/11/03 01:58:22;;;;;;;1.48;0.65;;;19.20;67.50;;;;;;5036568;28;20105;-72
2021/11/03 02:00:48;;;;;;;0.77;0.60;;;19.20;66.50;;;;;;5036530;28;20089;-71
2021/11/03 02:03:15;;;;;;;1.10;0.68;;;19.20;66.60;;;;;;5035998;28;20025;-71
2021/11/03 02:05:43;;;;;;;0.65;0.60;;;19.20;66.60;;;;;;5035708;28;20017;-71
2021/11/03 02:08:09;;;;;;;1.75;0.75;;;19.20;66.60;;;;;;5035749;28;20052;-72
2021/11/03 02:10:35;;;;;;;0.75;0.60;;;19.10;66.50;;;;;;5052267;28;20036;-72
2021/11/03 02:13:00;;;;;;;0.50;0.50;;;19.10;66.60;;;;;;5035807;28;20500;-72
2021/11/03 02:15:26;;;;;;;0.75;0.50;;;19.10;66.60;;;;;;5035595;28;20033;-72
2021/11/03 02:17:52;;;;;;;1.73;0.70;;;19.10;66.60;;;;;;5051950;28;20025;-72
2021/11/03 02:20:19;;;;;;;1.38;0.70;;;19.10;66.70;;;;;;5035711;28;20021;-72
2021/11/03 02:23:04;;;;;;;0.80;0.80;;;19.10;66.60;;;;;;5051742;28;20028;-71
2021/11/03 02:26:00;;;;;;;2.22;0.80;;;19.10;66.60;;;;;;5036256;28;20505;-72
2021/11/03 02:28:25;;;;;;;0.60;0.60;;;19.10;66.70;;;;;;5049189;28;20041;-71
2021/11/03 02:30:51;;;;;;;1.58;0.80;;;19.10;66.80;;;;;;5035146;28;20052;-71
2021/11/03 02:33:22;;;;;;;0.65;0.60;;;19.00;66.70;;;;;;5052003;28;20036;-72
2021/11/03 02:35:55;;;;;;;1.13;0.60;;;19.00;66.70;;;;;;5051595;28;20064;-71
2021/11/03 02:38:27;;;;;;;1.23;0.77;;;19.10;66.80;;;;;;5034556;28;20024;-72
2021/11/03 02:40:57;;;;;;;0.65;0.57;;;19.00;66.70;;;;;;5051583;28;20098;-72
2021/11/03 02:43:32;;;;;;;0.68;0.68;;;19.00;66.80;;;;;;5035579;28;20104;-71
2021/11/03 02:45:59;;;;;;;0.60;0.60;;;19.00;66.80;;;;;;5035756;28;20047;-72
2021/11/03 02:48:26;;;;;;;1.40;0.70;;;19.00;66.80;;;;;;5051664;28;20029;-72
2021/11/03 02:51:01;;;;;;;0.52;0.52;;;19.00;66.80;;;;;;5051125;28;20068;-71
2021/11/03 02:53:27;;;;;;;0.68;0.50;;;19.00;66.80;;;;;;5051452;28;20092;-71
2021/11/03 02:55:53;;;;;;;0.70;0.65;;;19.00;66.90;;;;;;5052631;28;20550;-72
2021/11/03 02:58:18;;;;;;;0.95;0.57;;;19.00;66.90;;;;;;5034995;28;20406;-72
2021/11/03 03:00:44;;;;;;;1.02;0.55;;;19.00;66.90;;;;;;5034903;28;20025;-72
2021/11/03 03:03:10;;;;;;;2.58;0.65;;;19.00;66.90;;;;;;5052565;28;20450;-72
2021/11/03 03:05:35;;;;;;;1.92;0.80;;;19.00;66.90;;;;;;5050841;28;20448;-72
2021/11/03 03:08:01;;;;;;;1.05;0.77;;;18.90;66.90;;;;;;5051220;28;20041;-72
2021/11/03 03:10:27;;;;;;;2.42;0.70;;;18.90;66.90;;;;;;5034735;28;20029;-72
2021/11/03 03:12:52;;;;;;;1.00;0.68;;;18.90;66.90;;;;;;5051274;28;20024;-72
2021/11/03 03:15:18;;;;;;;0.77;0.68;;;18.90;67.00;;;;;;5051282;28;20417;-72
2021/11/03 03:17:44;;;;;;;0.50;0.50;;;18.90;67.00;;;;;;5050654;28;20021;-72
2021/11/03 03:20:09;;;;;;;0.82;0.63;;;18.90;67.00;;;;;;5052083;28;20029;-72
2021/11/03 03:22:35;;;;;;;1.80;1.00;;;18.90;67.00;;;;;;5051031;28;20459;-72
2021/11/03 03:25:01;;;;;;;0.75;0.65;;;18.90;67.00;;;;;;5034777;28;20025;-72
2021/11/03 03:27:27;;;;;;;1.83;0.75;;;18.90;67.00;;;;;;5034648;28;20021;-72
2021/11/03 03:29:53;;;;;;;0.60;0.52;;;18.90;67.00;;;;;;5052119;28;21216;-71
2021/11/03 03:32:18;;;;;;;1.05;0.47;;;18.90;67.00;;;;;;5052261;28;20083;-72
2021/11/03 03:34:44;;;;;;;0.50;0.50;;;18.90;67.10;;;;;;5050817;28;20031;-72
2021/11/03 03:37:09;;;;;;;0.70;0.70;;;18.90;67.10;;;;;;5034584;28;20021;-72
2021/11/03 03:39:35;;;;;;;0.63;0.60;;;18.80;67.00;;;;;;5050807;28;20029;-72
2021/11/03 03:42:12;;;;;;;1.92;0.60;;;18.80;67.00;;;;;;5050975;28;20024;-71
2021/11/03 03:44:38;;;;;;;1.40;0.55;;;18.90;67.20;;;;;;5034535;28;20047;-72
2021/11/03 03:47:04;;;;;;;0.98;0.60;;;18.90;67.20;;;;;;5034492;28;20553;-71
2021/11/03 03:49:30;;;;;;;0.93;0.50;;;18.80;67.10;;;;;;5053932;28;20398;-72
2021/11/03 03:51:55;;;;;;;0.73;0.60;;;18.80;67.20;;;;;;5056050;28;20025;-72
2021/11/03 03:54:21;;;;;;;0.68;0.50;;;18.80;67.10;;;;;;5054852;28;20505;-71
2021/11/03 03:56:47;;;;;;;1.00;0.63;;;18.80;67.10;;;;;;5054973;28;20014;-72
2021/11/03 03:59:13;;;;;;;0.70;0.70;;;18.80;67.20;;;;;;5054731;28;20025;-72
2021/11/03 04:01:38;;;;;;;0.60;0.40;;;18.80;67.20;;;;;;5055762;28;20028;-72
2021/11/03 04:04:06;;;;;;;1.35;0.70;;;18.80;67.20;;;;;;5037972;28;20021;-72
2021/11/03 04:06:31;;;;;;;0.90;0.70;;;18.80;67.20;;;;;;5055630;28;20147;-72
2021/11/03 04:08:57;;;;;;;0.60;0.60;;;18.80;67.20;;;;;;5055755;28;20083;-72
2021/11/03 04:11:22;;;;;;;1.23;0.60;;;18.80;67.20;;;;;;5055948;28;20551;-72
2021/11/03 04:13:48;;;;;;;0.88;0.50;;;18.80;67.20;;;;;;5055577;28;20040;-72
2021/11/03 04:16:14;;;;;;;0.55;0.55;;;18.70;67.10;;;;;;5054787;28;20059;-72
2021/11/03 04:18:39;;;;;;;1.20;0.60;;;18.70;67.20;;;;;;5055031;28;20112;-71
2021/11/03 04:21:05;;;;;;;0.55;0.50;;;18.80;67.30;;;;;;5054516;28;20017;-72
2021/11/03 04:23:31;;;;;;;0.47;0.47;;;18.70;67.20;;;;;;5055576;28;20025;-72
2021/11/03 04:25:57;;;;;;;1.08;0.60;;;18.80;67.30;;;;;;5037671;28;20036;-71
2021/11/03 04:28:22;;;;;;;0.52;0.52;;;18.70;67.30;;;;;;5037791;28;20021;-72
2021/11/03 04:30:48;;;;;;;1.13;0.70;;;18.70;67.30;;;;;;5037648;28;20021;-72
2021/11/03 04:33:14;;;;;;;0.88;0.60;;;18.70;67.30;;;;;;5054989;28;20028;-72
2021/11/03 04:35:39;;;;;;;1.55;0.70;;;18.70;67.30;;;;;;5037806;28;20445;-72
2021/11/03 04:38:05;;;;;;;0.82;0.70;;;18.70;67.30;;;;;;5054118;28;20474;-71
2021/11/03 04:40:31;;;;;;;0.82;0.50;;;18.70;67.40;;;;;;5054163;28;20391;-72
2021/11/03 04:42:56;;;;;;;0.82;0.70;;;18.70;67.40;;;;;;5055011;28;20100;-72
2021/11/03 04:45:22;;;;;;;0.73;0.70;;;18.70;67.40;;;;;;5054124;28;20029;-72
2021/11/03 04:47:48;;;;;;;0.50;0.50;;;18.60;67.30;;;;;;5036991;28;20025;-72
2021/11/03 04:50:16;;;;;;;0.57;0.57;;;18.70;67.40;;;;;;5053994;28;20482;-72
2021/11/03 04:52:42;;;;;;;0.50;0.50;;;18.70;67.40;;;;;;5053893;28;20033;-72
2021/11/03 04:55:08;;;;;;;0.43;0.43;;;18.60;67.40;;;;;;5053748;28;20078;-72
2021/11/03 04:57:33;;;;;;;1.02;0.57;;;18.60;67.40;;;;;;5054917;28;20024;-72
2021/11/03 05:00:04;;;;;;;0.60;0.52;;;18.60;67.40;;;;;;5052526;28;20029;-72
2021/11/03 05:02:29;;;;;;;0.80;0.40;;;18.60;67.50;;;;;;5054517;28;20512;-72
2021/11/03 05:04:55;;;;;;;0.65;0.50;;;18.60;67.50;;;;;;5053513;28;20033;-72
2021/11/03 05:07:21;;;;;;;0.55;0.55;;;18.60;67.50;;;;;;5054576;28;20033;-72
2021/11/03 05:09:46;;;;;;;0.60;0.55;;;18.60;67.50;;;;;;5054638;28;20028;-72
2021/11/03 05:12:12;;;;;;;0.40;0.40;;;18.60;67.50;;;;;;5054744;28;20031;-72
2021/11/03 05:14:37;;;;;;;0.50;0.50;;;18.60;67.50;;;;;;5054639;28;20398;-72
2021/11/03 05:17:03;;;;;;;0.95;0.55;;;18.50;67.50;;;;;;5053075;28;20052;-72
2021/11/03 05:19:30;;;;;;;1.73;0.60;;;18.60;67.60;;;;;;5053265;28;20489;-72
2021/11/03 05:21:57;;;;;;;0.73;0.70;;;18.60;67.60;;;;;;5036713;28;20032;-71
2021/11/03 05:24:23;;;;;;;0.88;0.57;;;18.60;67.60;;;;;;5036917;28;20055;-72
2021/11/03 05:26:49;;;;;;;0.73;0.45;;;18.60;67.60;;;;;;5053178;28;20025;-71
2021/11/03 05:29:16;;;;;;;0.47;0.47;;;18.50;67.60;;;;;;5034670;28;20024;-71
2021/11/03 05:31:42;;;;;;;3.55;0.70;;;18.50;68.70;;;;;;5049527;28;20478;-72
2021/11/03 05:34:08;;;;;;;0.68;0.40;;;18.50;67.60;;;;;;5053164;28;20074;-72
2021/11/03 05:36:33;;;;;;;0.50;0.45;;;18.50;67.70;;;;;;5053153;28;20033;-72
2021/11/03 05:39:01;;;;;;;16.65;0.80;;;18.50;67.60;;;;;;5050340;28;20512;-69
2021/11/03 05:41:27;;;;;;;0.43;0.40;;;18.50;67.70;;;;;;5039867;28;20029;-70
2021/11/03 05:43:53;;;;;;;0.43;0.43;;;18.50;67.80;;;;;;5057966;28;20440;-70
2021/11/03 05:46:30;;;;;;;0.90;0.80;;;18.50;67.80;;;;;;5038455;28;20028;-70
2021/11/03 05:48:58;;;;;;;1.17;0.50;;;18.60;67.80;;;;;;5051090;28;20178;-70
2021/11/03 05:51:24;;;;;;;0.63;0.63;;;18.60;68.90;;;;;;5049731;28;20062;-72
2021/11/03 05:53:49;;;;;;;0.90;0.50;;;18.60;67.80;;;;;;5051487;28;20096;-72
2021/11/03 05:56:15;;;;;;;0.75;0.55;;;18.60;67.70;;;;;;5051464;28;20029;-72
2021/11/03 05:58:41;;;;;;;0.52;0.50;;;18.60;67.60;;;;;;5052174;28;20021;-71
2021/11/03 06:01:07;;;;;;;1.30;0.65;;;18.60;67.60;;;;;;5050840;28;20025;-71
2021/11/03 06:03:33;;;;;;;0.70;0.70;;;18.60;67.60;;;;;;5051471;28;20042;-71
2021/11/03 06:05:58;;;;;;;0.55;0.55;;;18.50;67.50;;;;;;5049617;28;20035;-72
2021/11/03 06:08:24;;;;;;;0.68;0.50;;;18.50;67.50;;;;;;5052358;28;20418;-71
2021/11/03 06:10:51;;;;;;;2.63;0.43;;;18.50;67.50;;;;;;5050695;28;20040;-73
2021/11/03 06:13:19;;;;;;;0.82;0.70;;;18.50;67.50;;;;;;5050785;28;20020;-73
2021/11/03 06:15:44;;;;;;;2.25;0.52;;;18.50;67.50;;;;;;5049517;28;20070;-71
2021/11/03 06:18:10;;;;;;;0.85;0.50;;;18.50;67.50;;;;;;5053611;28;20032;-72
2021/11/03 06:20:38;;;;;;;2.70;0.70;;;18.50;67.40;;;;;;5051294;28;20048;-73
2021/11/03 06:23:04;;;;;;;1.48;0.45;;;18.50;67.40;;;;;;5057870;28;20033;-73
2021/11/03 06:25:29;;;;;;;1.25;0.70;;;18.40;67.40;;;;;;5060696;28;20013;-73
2021/11/03 06:27:55;;;;;;;0.93;0.60;;;18.40;67.30;;;;;;5035038;28;20486;-73
2021/11/03 06:30:24;;;;;;;0.82;0.50;;;18.40;67.40;;;;;;5050501;28;20036;-71
2021/11/03 06:32:49;;;;;;;1.33;0.60;;;18.40;67.30;;;;;;5052023;28;20020;-71
2021/11/03 06:35:15;;;;;;;0.68;0.63;;;18.40;67.30;;;;;;5052387;28;20458;-70
2021/11/03 06:37:41;;;;;;;0.52;0.50;;;18.40;67.30;;;;;;5050344;28;20014;-71
2021/11/03 06:40:08;;;;;;;0.60;0.50;;;18.40;67.30;;;;;;5050952;28;20021;-72
2021/11/03 06:42:34;;;;;;;0.68;0.50;;;18.40;67.20;;;;;;5051965;28;20432;-71
2021/11/03 06:45:00;;;;;;;0.82;0.50;;;18.40;67.20;;;;;;5052348;28;20025;-71
2021/11/03 06:47:25;;;;;;;1.58;0.60;;;18.40;67.20;;;;;;5050282;28;20111;-72
2021/11/03 06:49:51;;;;;;;0.40;0.40;;;18.40;67.30;;;;;;5053002;28;20455;-72
2021/11/03 06:52:17;;;;;;;0.57;0.57;;;18.40;67.20;;;;;;5035189;28;20052;-72
2021/11/03 06:54:43;;;;;;;0.80;0.60;;;18.40;67.20;;;;;;5051950;28;20104;-72
2021/11/03 06:57:08;;;;;;;0.50;0.50;;;18.40;67.10;;;;;;5050215;28;20029;-72
2021/11/03 06:59:35;;;;;;;1.10;0.55;;;18.40;67.20;;;;;;5048444;28;20473;-72
2021/11/03 07:02:01;;;;;;;2.10;0.60;;;18.30;67.00;;;;;;5050851;28;20013;-72
2021/11/03 07:04:27;;;;;;;0.85;0.60;;;18.30;67.00;;;;;;5048901;28;20036;-72
2021/11/03 07:06:54;;;;;;;0.50;0.50;;;18.30;67.00;;;;;;5051305;28;20045;-72
2021/11/03 07:09:20;;;;;;;1.05;0.55;;;18.30;67.00;;;;;;5049994;28;20027;-73
2021/11/03 07:11:45;;;;;;;1.50;0.70;;;18.30;67.00;;;;;;5050290;28;20021;-72
2021/11/03 07:14:11;;;;;;;0.88;0.43;;;18.30;67.00;;;;;;5049901;28;20021;-72
2021/11/03 07:16:37;;;;;;;0.88;0.40;;;18.30;67.00;;;;;;5049981;28;20081;-72
2021/11/03 07:19:03;;;;;;;0.45;0.45;;;18.30;67.00;;;;;;5049833;28;20032;-73
2021/11/03 07:21:28;;;;;;;0.85;0.40;;;18.30;67.00;;;;;;5049807;28;20343;-72
2021/11/03 07:23:54;;;;;;;1.45;0.60;;;18.30;67.00;;;;;;5050132;28;20417;-72
2021/11/03 07:26:20;;;;;;;1.00;0.57;;;18.30;66.90;;;;;;5050501;28;20111;-73
2021/11/03 07:28:45;;;;;;;2.17;0.55;;;18.30;66.90;;;;;;5050104;28;20032;-72
2021/11/03 07:31:11;;;;;;;2.70;0.70;;;18.30;66.90;;;;;;5049680;28;20501;-70
2021/11/03 07:33:37;;;;;;;3.90;0.60;;;18.30;67.00;;;;;;5049801;28;20024;-72
2021/11/03 07:36:04;;;;;;;8.85;1.23;;;18.30;66.90;;;;;;5048697;28;20013;-73
2021/11/03 07:38:29;;;;;;;8.82;2.05;;;18.30;66.90;;;;;;5050476;28;20024;-73
2021/11/03 07:40:56;;;;;;;7.18;1.48;;;18.30;67.00;;;;;;5040899;28;20413;-72
2021/11/03 07:43:24;;;;;;;7.18;1.60;;;18.30;66.90;;;;;;5031695;28;20082;-73
2021/11/03 07:45:50;;;;;;;4.55;1.67;;;18.30;66.90;;;;;;5033282;28;20028;-72
2021/11/03 07:48:16;;;;;;;9.65;2.10;;;18.30;67.00;;;;;;5050902;28;20022;-74
2021/11/03 07:50:45;;;;;;;10.40;1.85;;;18.30;66.90;;;;;;5031176;28;20112;-74
2021/11/03 07:53:11;;;;;;;10.38;1.90;;;18.30;67.00;;;;;;5030016;28;20014;-74
2021/11/03 07:55:36;;;;;;;11.75;2.70;;;18.30;67.00;;;;;;5014112;28;20040;-74
2021/11/03 07:58:02;;;;;;;11.45;2.55;;;18.30;67.00;;;;;;5030973;28;20026;-74
2021/11/03 08:00:33;;;;;;;12.77;2.85;;;18.30;67.00;;;;;;5030770;28;20037;-74
2021/11/03 08:02:59;;;;;;;14.38;2.38;;;18.30;67.00;;;;;;5031179;28;20018;-74
2021/11/03 08:05:28;;;;;;;10.00;2.17;;;18.30;67.10;;;;;;5030637;28;20101;-74
2021/11/03 08:07:55;;;;;;;15.75;2.28;;;18.30;67.00;;;;;;5030697;28;20415;-74
2021/11/03 08:10:20;;;;;;;10.90;2.25;;;18.30;67.00;;;;;;5030507;28;20028;-74
2021/11/03 08:12:46;;;;;;;12.15;2.92;;;18.30;67.00;;;;;;5032097;28;20038;-73
2021/11/03 08:15:12;;;;;;;9.20;2.60;;;18.30;67.10;;;;;;5032022;28;20022;-74
2021/11/03 08:17:38;;;;;;;11.55;2.40;;;18.30;67.10;;;;;;5031479;28;20050;-74
2021/11/03 08:20:05;;;;;;;10.90;2.60;;;18.30;67.10;;;;;;5050546;28;20025;-74
2021/11/03 08:22:33;;;;;;;13.35;3.17;;;18.30;67.10;;;;;;5050580;28;20052;-74
2021/11/03 08:24:58;;;;;;;10.90;2.63;;;18.30;67.10;;;;;;5050376;28;20417;-74
2021/11/03 08:27:24;;;;;;;12.48;2.42;;;18.30;67.10;;;;;;5051774;28;20031;-73
2021/11/03 08:29:50;;;;;;;8.93;2.38;;;18.30;67.10;;;;;;5050499;28;20367;-74
2021/11/03 08:32:24;;;;;;;10.52;2.30;;;18.30;67.10;;;;;;5050614;28;20475;-74
2021/11/03 08:34:49;;;;;;;7.65;2.13;;;18.30;67.10;;;;;;5052428;28;20079;-74
2021/11/03 08:37:17;;;;;;;6.53;2.20;;;18.30;67.10;;;;;;5054171;28;20025;-73
2021/11/03 08:39:44;;;;;;;14.02;2.30;;;18.30;67.10;;;;;;5053843;28;20013;-74
2021/11/03 08:42:10;;;;;;;10.43;2.03;;;18.30;67.10;;;;;;5054149;28;20086;-74
2021/11/03 08:44:37;;;;;;;9.45;2.55;;;18.30;67.10;;;;;;5053822;28;20025;-74
2021/11/03 08:47:03;;;;;;;7.40;2.05;;;18.30;67.20;;;;;;5054173;28;20036;-74
2021/11/03 08:49:30;;;;;;;7.75;2.03;;;18.30;67.20;;;;;;5053885;28;20116;-74
2021/11/03 08:51:55;;;;;;;7.63;2.35;;;18.30;67.20;;;;;;5053857;28;20029;-74
2021/11/03 08:54:21;;;;;;;9.23;2.55;;;18.20;67.20;;;;;;5053499;28;20025;-74
2021/11/03 08:56:47;;;;;;;7.13;2.50;;;18.20;67.20;;;;;;5053875;28;20021;-74
2021/11/03 08:59:12;;;;;;;7.70;1.88;;;18.20;67.20;;;;;;5055107;28;20573;-74
2021/11/03 09:01:38;;;;;;;7.88;3.17;;;18.20;67.20;;;;;;5054682;28;20028;-74
2021/11/03 09:04:04;;;;;;;7.78;2.28;;;18.20;67.20;;;;;;5053849;28;20027;-74
2021/11/03 09:06:30;;;;;;;7.40;2.08;;;18.20;67.20;;;;;;5053359;28;20029;-74
2021/11/03 09:08:56;;;;;;;10.27;1.90;;;18.20;67.20;;;;;;5053415;28;20039;-74
2021/11/03 09:11:21;;;;;;;4.72;2.00;;;18.20;67.20;;;;;;5054587;28;20071;-74
2021/11/03 09:13:49;;;;;;;5.93;1.90;;;18.20;67.20;;;;;;5053320;28;20029;-74
2021/11/03 09:16:16;;;;;;;4.70;1.95;;;18.20;67.20;;;;;;5053653;28;20052;-74
2021/11/03 09:18:41;;;;;;;7.53;2.63;;;18.20;67.30;;;;;;5053109;28;20017;-74
2021/11/03 09:21:08;;;;;;;5.03;1.60;;;18.20;67.20;;;;;;5036753;28;20095;-74
2021/11/03 09:23:35;;;;;;;7.50;2.03;;;18.20;67.30;;;;;;5052877;28;20417;-74
2021/11/03 09:26:00;;;;;;;7.05;1.95;;;18.20;67.20;;;;;;5036800;28;20438;-74
2021/11/03 09:28:27;;;;;;;6.47;1.67;;;18.20;67.20;;;;;;5054371;28;20051;-74
2021/11/03 09:30:54;;;;;;;4.05;2.00;;;18.20;67.20;;;;;;5053134;28;20455;-74
2021/11/03 09:33:19;;;;;;;4.72;2.15;;;18.20;67.20;;;;;;5053260;28;20035;-74
2021/11/03 09:35:47;;;;;;;7.43;2.15;;;18.20;67.20;;;;;;5052880;28;20029;-74
2021/11/03 09:38:15;;;;;;;7.93;2.17;;;18.20;67.20;;;;;;5036368;28;20051;-74
2021/11/03 09:41:15;;;;;;;5.80;1.60;;;18.20;67.20;;;;;;5052731;28;20021;-74
2021/11/03 09:43:58;;;;;;;6.40;1.80;;;18.20;67.20;;;;;;5042306;28;20075;-74
2021/11/03 09:46:38;;;;;;;4.13;1.80;;;18.20;67.30;;;;;;5052484;28;20478;-74
2021/11/03 09:49:38;;;;;;;7.10;1.65;;;18.20;67.30;;;;;;5052889;28;20469;-74
2021/11/03 09:52:16;;;;;;;7.65;2.10;;;18.20;67.30;;;;;;5052705;28;20028;-74
2021/11/03 09:54:44;;;;;;;7.65;2.03;;;18.20;67.30;;;;;;5052694;28;20056;-74
2021/11/03 09:57:19;;;;;;;4.97;1.48;;;18.10;67.30;;;;;;5052736;28;20091;-74
2021/11/03 10:00:17;;;;;;;4.15;1.77;;;18.10;67.30;;;;;;5052470;28;20025;-74
2021/11/03 10:02:58;;;;;;;4.93;1.80;;;18.20;67.20;;;;;;5053603;28;20087;-74
2021/11/03 10:05:46;;;;;;;3.90;1.70;;;18.20;67.30;;;;;;5053698;28;20028;-74
2021/11/03 10:08:18;;;;;;;3.60;1.50;;;18.10;67.30;;;;;;5038062;28;20450;-74
2021/11/03 10:10:58;;;;;;;3.40;1.60;;;18.10;67.30;;;;;;5035832;28;20029;-74
2021/11/03 10:13:23;;;;;;;7.18;1.50;;;18.10;67.30;;;;;;5052387;28;20094;-73
2021/11/03 10:15:52;;;;;;;4.32;1.67;;;18.10;67.40;;;;;;5053217;28;20505;-74
2021/11/03 10:18:19;;;;;;;4.18;1.85;;;18.10;67.30;;;;;;5053403;28;20040;-74
2021/11/03 10:21:00;;;;;;;6.70;1.85;;;18.10;67.30;;;;;;5035300;28;20013;-74
2021/11/03 10:23:27;;;;;;;3.63;1.70;;;18.20;67.30;;;;;;5052204;28;20032;-74
2021/11/03 10:26:02;;;;;;;3.75;1.70;;;18.10;67.30;;;;;;5018910;28;20512;-74
2021/11/03 10:28:48;;;;;;;6.00;1.58;;;18.10;67.30;;;;;;5053249;28;20493;-74
2021/11/03 10:31:34;;;;;;;5.75;1.67;;;18.10;67.10;;;;;;5035610;28;20020;-74
2021/11/03 10:34:05;;;;;;;4.40;1.58;;;18.10;67.30;;;;;;5051915;28;20021;-74
2021/11/03 10:36:41;;;;;;;6.13;1.88;;;18.10;67.40;;;;;;5051606;28;20013;-74
2021/11/03 10:39:19;;;;;;;1.98;1.20;;;18.10;67.20;;;;;;5035497;28;20032;-74
2021/11/03 10:41:52;;;;;;;3.13;1.48;;;18.10;67.20;;;;;;5035699;28;20029;-74
2021/11/03 10:44:23;;;;;;;2.90;1.35;;;18.10;67.30;;;;;;5052006;28;20025;-74
2021/11/03 10:46:54;;;;;;;2.30;1.30;;;18.10;67.20;;;;;;5035332;28;20071;-74
2021/11/03 10:49:43;;;;;;;3.80;2.03;;;18.10;67.30;;;;;;5051647;28;20085;-74
2021/11/03 10:52:09;;;;;;;5.07;1.67;;;18.10;67.30;;;;;;5052026;28;20124;-74
2021/11/03 10:54:44;;;;;;;4.53;1.70;;;18.10;67.20;;;;;;5052557;28;20564;-74
2021/11/03 10:57:25;;;;;;;4.30;1.45;;;18.10;67.30;;;;;;5035206;28;20017;-74
2021/11/03 11:00:14;;;;;;;3.63;1.30;;;18.10;67.20;;;;;;5019842;28;20028;-74
2021/11/03 11:02:51;;;;;;;5.72;1.90;;;18.10;67.30;;;;;;5037606;28;20125;-74
2021/11/03 11:05:20;;;;;;;5.85;1.73;;;18.10;67.30;;;;;;5051210;28;20453;-74
2021/11/03 11:07:51;;;;;;;4.22;1.10;;;18.00;67.20;;;;;;5034657;28;20053;-74
2021/11/03 11:10:20;;;;;;;3.17;1.38;;;18.10;67.30;;;;;;5035191;28;20505;-74
2021/11/03 11:12:47;;;;;;;3.55;1.52;;;18.00;67.20;;;;;;5052335;28;20024;-74
2021/11/03 11:15:45;;;;;;;1.98;1.48;;;18.10;67.30;;;;;;5034792;28;20029;-74
2021/11/03 11:18:19;;;;;;;2.28;1.30;;;18.10;67.10;;;;;;5051033;28;20027;-74
2021/11/03 11:20:48;;;;;;;2.13;1.23;;;18.10;67.30;;;;;;5052273;28;20052;-74
2021/11/03 11:23:23;;;;;;;4.25;1.38;;;18.10;67.30;;;;;;5018293;28;20075;-74
2021/11/03 11:26:28;;;;;;;4.05;1.55;;;18.10;67.20;;;;;;5051022;28;20053;-74
2021/11/03 11:28:59;;;;;;;2.53;1.38;;;18.10;67.20;;;;;;4990806;28;20044;-74
2021/11/03 11:31:37;;;;;;;3.40;1.20;;;18.00;67.30;;;;;;4990992;28;20141;-74
2021/11/03 11:34:15;;;;;;;2.00;1.35;;;18.10;67.20;;;;;;4990637;28;20033;-74
2021/11/03 11:36:45;;;;;;;3.70;1.30;;;18.00;67.20;;;;;;4990693;28;20026;-74
2021/11/03 11:39:30;;;;;;;2.15;1.10;;;18.10;67.30;;;;;;4990744;28;20031;-74
2021/11/03 11:42:19;;;;;;;4.40;1.40;;;18.10;67.10;;;;;;4974560;28;20181;-74
2021/11/03 11:44:57;;;;;;;2.10;1.15;;;18.10;67.20;;;;;;4976365;28;20132;-74
2021/11/03 11:47:52;;;;;;;4.50;1.67;;;18.00;67.20;;;;;;4974979;28;20038;-74
2021/11/03 11:50:22;;;;;;;3.80;1.48;;;18.10;67.10;;;;;;4989418;28;20030;-74
2021/11/03 11:52:48;;;;;;;5.63;1.80;;;18.10;67.30;;;;;;4974577;28;20038;-74
2021/11/03 11:55:18;;;;;;;3.63;1.20;;;18.00;67.20;;;;;;4974529;28;20436;-74
2021/11/03 11:57:56;;;;;;;3.35;1.30;;;18.00;67.20;;;;;;4974515;28;20035;-74
2021/11/03 12:00:23;;;;;;;3.22;1.27;;;18.10;67.10;;;;;;4990630;28;20022;-74
2021/11/03 12:02:51;;;;;;;2.17;1.48;;;18.00;67.20;;;;;;4974157;28;20023;-74
2021/11/03 12:05:43;;;;;;;2.80;1.50;;;18.00;67.20;;;;;;5025293;28;20041;-74
2021/11/03 12:08:09;;;;;;;3.72;1.38;;;18.10;67.10;;;;;;5031901;28;20111;-74
2021/11/03 12:11:07;;;;;;;4.53;1.17;;;18.10;67.20;;;;;;5050632;28;20025;-74
2021/11/03 12:14:11;;;;;;;2.75;1.30;;;18.00;67.20;;;;;;5014015;28;20048;-74
2021/11/03 12:16:54;;;;;;;3.53;1.40;;;18.10;67.10;;;;;;5013585;28;20538;-74
2021/11/03 12:19:46;;;;;;;5.22;1.30;;;18.10;67.20;;;;;;4996484;28;20032;-74
2021/11/03 12:22:20;;;;;;;1.13;0.70;;;18.00;67.00;;;;;;4996366;28;20156;-74
2021/11/03 12:24:48;;;;;;;2.78;1.00;;;18.00;67.20;;;;;;5033498;28;20040;-74
2021/11/03 12:27:22;;;;;;;3.28;1.10;;;18.00;67.20;;;;;;5017071;28;20033;-74
2021/11/03 12:29:54;;;;;;;2.63;1.05;;;18.10;67.20;;;;;;5033302;28;20033;-74
2021/11/03 12:32:23;;;;;;;2.55;1.10;;;18.10;67.20;;;;;;5000221;28;20231;-74
2021/11/03 12:34:49;;;;;;;3.38;1.08;;;18.00;67.10;;;;;;5016787;28;20144;-74
2021/11/03 12:37:15;;;;;;;3.38;1.42;;;18.00;67.20;;;;;;5016739;28;20081;-73
2021/11/03 12:39:43;;;;;;;3.28;1.13;;;18.00;67.10;;;;;;5033168;28;20487;-74
2021/11/03 12:42:31;;;;;;;3.58;1.10;;;18.00;67.10;;;;;;5033238;28;20029;-74
2021/11/03 12:45:17;;;;;;;2.17;1.20;;;18.10;67.10;;;;;;5033086;28;20087;-74
2021/11/03 12:47:52;;;;;;;3.35;1.50;;;18.10;67.00;;;;;;5016140;28;20133;-74
2021/11/03 12:50:41;;;;;;;2.03;1.33;;;18.10;67.20;;;;;;5017704;28;20128;-74
2021/11/03 12:53:22;;;;;;;2.65;1.10;;;18.10;67.00;;;;;;5047033;28;20119;-74
2021/11/03 12:56:09;;;;;;;1.40;0.93;;;18.10;67.10;;;;;;5053667;28;20108;-74